sensor_id;sensor_type;location;lat;lon;timestamp;P1;durP1;ratioP1;P2;durP2;ratioP2
49440;SDS011;35317;51.978;6.296;2023-07-22T00:03:32;16.70;;;8.25;;
49440;SDS011;35317;51.978;6.296;2023-07-22T00:08:33;15.32;;;8.18;;
49440;SDS011;35317;51.978;6.296;2023-07-22T00:13:34;14.48;;;7.13;;
49440;SDS011;35317;51.978;6.296;2023-07-22T00:18:35;14.63;;;7.55;;
49440;SDS011;35317;51.978;6.296;2023-07-22T00:23:36;14.50;;;7.43;;
49440;SDS011;35317;51.978;6.296;2023-07-22T00:28:37;13.27;;;7.10;;
49440;SDS011;35317;51.978;6.296;2023-07-22T00:33:38;15.13;;;7.43;;
49440;SDS011;35317;51.978;6.296;2023-07-22T00:38:39;13.40;;;7.13;;
49440;SDS011;35317;51.978;6.296;2023-07-22T00:43:41;12.18;;;7.18;;
49440;SDS011;35317;51.978;6.296;2023-07-22T00:48:41;13.70;;;9.02;;
49440;SDS011;35317;51.978;6.296;2023-07-22T00:53:42;15.95;;;7.38;;
49440;SDS011;35317;51.978;6.296;2023-07-22T00:58:43;17.25;;;8.18;;
49440;SDS011;35317;51.978;6.296;2023-07-22T01:03:44;17.52;;;8.48;;
49440;SDS011;35317;51.978;6.296;2023-07-22T01:08:46;19.63;;;10.25;;
49440;SDS011;35317;51.978;6.296;2023-07-22T01:13:47;20.40;;;10.35;;
49440;SDS011;35317;51.978;6.296;2023-07-22T01:18:47;22.08;;;10.90;;
49440;SDS011;35317;51.978;6.296;2023-07-22T01:23:48;20.95;;;10.32;;
49440;SDS011;35317;51.978;6.296;2023-07-22T01:28:50;22.92;;;11.27;;
49440;SDS011;35317;51.978;6.296;2023-07-22T01:33:51;19.45;;;10.45;;
49440;SDS011;35317;51.978;6.296;2023-07-22T01:38:52;20.67;;;9.77;;
49440;SDS011;35317;51.978;6.296;2023-07-22T01:43:53;22.25;;;10.40;;
49440;SDS011;35317;51.978;6.296;2023-07-22T01:48:55;19.90;;;10.20;;
49440;SDS011;35317;51.978;6.296;2023-07-22T01:53:56;23.50;;;10.85;;
49440;SDS011;35317;51.978;6.296;2023-07-22T01:58:57;20.02;;;9.85;;
49440;SDS011;35317;51.978;6.296;2023-07-22T02:03:58;18.92;;;9.77;;
49440;SDS011;35317;51.978;6.296;2023-07-22T02:08:58;22.60;;;10.18;;
49440;SDS011;35317;51.978;6.296;2023-07-22T02:13:59;20.88;;;9.48;;
49440;SDS011;35317;51.978;6.296;2023-07-22T02:19:00;20.77;;;9.57;;
49440;SDS011;35317;51.978;6.296;2023-07-22T02:24:01;16.77;;;8.70;;
49440;SDS011;35317;51.978;6.296;2023-07-22T02:29:02;20.83;;;9.55;;
49440;SDS011;35317;51.978;6.296;2023-07-22T02:34:02;20.02;;;9.75;;
49440;SDS011;35317;51.978;6.296;2023-07-22T02:39:03;17.98;;;8.50;;
49440;SDS011;35317;51.978;6.296;2023-07-22T02:44:04;17.65;;;9.00;;
49440;SDS011;35317;51.978;6.296;2023-07-22T02:49:05;20.42;;;9.10;;
49440;SDS011;35317;51.978;6.296;2023-07-22T02:54:06;18.77;;;9.23;;
49440;SDS011;35317;51.978;6.296;2023-07-22T02:59:06;19.90;;;9.43;;
49440;SDS011;35317;51.978;6.296;2023-07-22T03:04:09;17.27;;;8.65;;
49440;SDS011;35317;51.978;6.296;2023-07-22T03:09:09;20.83;;;8.73;;
49440;SDS011;35317;51.978;6.296;2023-07-22T03:14:11;17.23;;;8.68;;
49440;SDS011;35317;51.978;6.296;2023-07-22T03:19:12;17.85;;;9.52;;
49440;SDS011;35317;51.978;6.296;2023-07-22T03:24:12;21.08;;;8.93;;
49440;SDS011;35317;51.978;6.296;2023-07-22T03:29:14;20.00;;;8.98;;
49440;SDS011;35317;51.978;6.296;2023-07-22T03:34:15;19.73;;;9.35;;
49440;SDS011;35317;51.978;6.296;2023-07-22T03:39:16;21.80;;;10.38;;
49440;SDS011;35317;51.978;6.296;2023-07-22T03:44:17;20.77;;;10.13;;
49440;SDS011;35317;51.978;6.296;2023-07-22T03:49:17;22.55;;;9.82;;
49440;SDS011;35317;51.978;6.296;2023-07-22T03:54:18;21.95;;;9.77;;
49440;SDS011;35317;51.978;6.296;2023-07-22T03:59:19;23.88;;;10.80;;
49440;SDS011;35317;51.978;6.296;2023-07-22T04:04:20;23.73;;;10.75;;
49440;SDS011;35317;51.978;6.296;2023-07-22T04:09:20;28.38;;;11.05;;
49440;SDS011;35317;51.978;6.296;2023-07-22T04:14:21;24.33;;;10.90;;
49440;SDS011;35317;51.978;6.296;2023-07-22T04:19:22;20.90;;;10.32;;
49440;SDS011;35317;51.978;6.296;2023-07-22T04:24:23;25.33;;;10.10;;
49440;SDS011;35317;51.978;6.296;2023-07-22T04:29:25;23.50;;;10.02;;
49440;SDS011;35317;51.978;6.296;2023-07-22T04:34:32;19.98;;;9.13;;
49440;SDS011;35317;51.978;6.296;2023-07-22T04:39:32;26.90;;;10.38;;
49440;SDS011;35317;51.978;6.296;2023-07-22T04:44:34;23.40;;;10.25;;
49440;SDS011;35317;51.978;6.296;2023-07-22T04:49:35;23.27;;;10.73;;
49440;SDS011;35317;51.978;6.296;2023-07-22T04:54:35;22.95;;;10.55;;
49440;SDS011;35317;51.978;6.296;2023-07-22T04:59:36;25.60;;;10.75;;
49440;SDS011;35317;51.978;6.296;2023-07-22T05:04:37;25.85;;;10.13;;
49440;SDS011;35317;51.978;6.296;2023-07-22T05:09:38;23.85;;;10.90;;
49440;SDS011;35317;51.978;6.296;2023-07-22T05:14:39;22.95;;;10.55;;
49440;SDS011;35317;51.978;6.296;2023-07-22T05:19:39;21.58;;;10.70;;
49440;SDS011;35317;51.978;6.296;2023-07-22T05:24:40;21.35;;;9.75;;
49440;SDS011;35317;51.978;6.296;2023-07-22T05:29:41;22.77;;;11.18;;
49440;SDS011;35317;51.978;6.296;2023-07-22T05:34:42;20.98;;;10.13;;
49440;SDS011;35317;51.978;6.296;2023-07-22T05:39:42;19.52;;;9.80;;
49440;SDS011;35317;51.978;6.296;2023-07-22T05:44:43;21.13;;;10.02;;
49440;SDS011;35317;51.978;6.296;2023-07-22T05:49:44;21.20;;;10.20;;
49440;SDS011;35317;51.978;6.296;2023-07-22T05:54:45;21.20;;;10.02;;
49440;SDS011;35317;51.978;6.296;2023-07-22T05:59:46;19.35;;;9.73;;
49440;SDS011;35317;51.978;6.296;2023-07-22T06:04:47;21.63;;;10.68;;
49440;SDS011;35317;51.978;6.296;2023-07-22T06:09:48;19.92;;;10.18;;
49440;SDS011;35317;51.978;6.296;2023-07-22T06:14:49;17.73;;;9.32;;
49440;SDS011;35317;51.978;6.296;2023-07-22T06:19:50;16.65;;;9.32;;
49440;SDS011;35317;51.978;6.296;2023-07-22T06:24:51;18.88;;;9.73;;
49440;SDS011;35317;51.978;6.296;2023-07-22T06:29:52;18.88;;;10.35;;
49440;SDS011;35317;51.978;6.296;2023-07-22T06:34:52;18.45;;;9.27;;
49440;SDS011;35317;51.978;6.296;2023-07-22T06:39:53;21.05;;;10.60;;
49440;SDS011;35317;51.978;6.296;2023-07-22T06:44:54;22.25;;;10.02;;
49440;SDS011;35317;51.978;6.296;2023-07-22T06:49:55;22.85;;;10.85;;
49440;SDS011;35317;51.978;6.296;2023-07-22T06:54:56;18.42;;;9.52;;
49440;SDS011;35317;51.978;6.296;2023-07-22T06:59:57;18.70;;;9.68;;
49440;SDS011;35317;51.978;6.296;2023-07-22T07:04:57;20.52;;;9.88;;
49440;SDS011;35317;51.978;6.296;2023-07-22T07:09:58;16.65;;;9.15;;
49440;SDS011;35317;51.978;6.296;2023-07-22T07:14:59;21.63;;;9.70;;
49440;SDS011;35317;51.978;6.296;2023-07-22T07:20:00;20.20;;;10.10;;
49440;SDS011;35317;51.978;6.296;2023-07-22T07:25:01;16.27;;;9.05;;
49440;SDS011;35317;51.978;6.296;2023-07-22T07:30:02;16.75;;;8.93;;
49440;SDS011;35317;51.978;6.296;2023-07-22T07:35:03;17.60;;;8.82;;
49440;SDS011;35317;51.978;6.296;2023-07-22T07:40:05;15.90;;;8.85;;
49440;SDS011;35317;51.978;6.296;2023-07-22T07:45:07;15.10;;;8.30;;
49440;SDS011;35317;51.978;6.296;2023-07-22T07:50:08;15.18;;;8.70;;
49440;SDS011;35317;51.978;6.296;2023-07-22T07:55:09;17.00;;;8.63;;
49440;SDS011;35317;51.978;6.296;2023-07-22T08:00:10;15.43;;;8.25;;
49440;SDS011;35317;51.978;6.296;2023-07-22T08:05:12;16.40;;;8.70;;
49440;SDS011;35317;51.978;6.296;2023-07-22T08:10:12;14.13;;;7.68;;
49440;SDS011;35317;51.978;6.296;2023-07-22T08:15:13;12.13;;;7.20;;
49440;SDS011;35317;51.978;6.296;2023-07-22T08:20:14;12.73;;;6.53;;
49440;SDS011;35317;51.978;6.296;2023-07-22T08:25:15;11.48;;;6.50;;
49440;SDS011;35317;51.978;6.296;2023-07-22T08:35:51;13.27;;;5.35;;
49440;SDS011;35317;51.978;6.296;2023-07-22T08:40:52;12.27;;;5.05;;
49440;SDS011;35317;51.978;6.296;2023-07-22T08:45:53;9.98;;;5.13;;
49440;SDS011;35317;51.978;6.296;2023-07-22T08:50:55;8.80;;;4.55;;
49440;SDS011;35317;51.978;6.296;2023-07-22T08:56:04;8.82;;;4.93;;
49440;SDS011;35317;51.978;6.296;2023-07-22T09:01:05;9.60;;;4.75;;
49440;SDS011;35317;51.978;6.296;2023-07-22T09:13:13;10.52;;;5.28;;
49440;SDS011;35317;51.978;6.296;2023-07-22T09:25:17;11.63;;;5.40;;
49440;SDS011;35317;51.978;6.296;2023-07-22T09:30:25;13.35;;;5.90;;
49440;SDS011;35317;51.978;6.296;2023-07-22T09:35:43;9.88;;;5.50;;
49440;SDS011;35317;51.978;6.296;2023-07-22T09:40:46;10.32;;;5.47;;
49440;SDS011;35317;51.978;6.296;2023-07-22T09:45:47;9.05;;;5.32;;
49440;SDS011;35317;51.978;6.296;2023-07-22T09:50:55;10.98;;;5.95;;
49440;SDS011;35317;51.978;6.296;2023-07-22T09:56:02;10.23;;;5.53;;
49440;SDS011;35317;51.978;6.296;2023-07-22T10:19:28;8.40;;;4.63;;
49440;SDS011;35317;51.978;6.296;2023-07-22T10:36:05;5.30;;;3.35;;
49440;SDS011;35317;51.978;6.296;2023-07-22T10:41:16;5.43;;;3.33;;
49440;SDS011;35317;51.978;6.296;2023-07-22T10:46:17;6.40;;;3.90;;
49440;SDS011;35317;51.978;6.296;2023-07-22T10:51:18;5.55;;;3.08;;
49440;SDS011;35317;51.978;6.296;2023-07-22T10:56:19;4.70;;;2.75;;
49440;SDS011;35317;51.978;6.296;2023-07-22T11:01:30;4.35;;;3.00;;
49440;SDS011;35317;51.978;6.296;2023-07-22T11:06:34;5.85;;;3.40;;
49440;SDS011;35317;51.978;6.296;2023-07-22T11:11:40;7.07;;;3.33;;
49440;SDS011;35317;51.978;6.296;2023-07-22T11:16:44;4.60;;;2.53;;
49440;SDS011;35317;51.978;6.296;2023-07-22T11:21:48;6.37;;;2.73;;
49440;SDS011;35317;51.978;6.296;2023-07-22T11:26:50;3.63;;;2.63;;
49440;SDS011;35317;51.978;6.296;2023-07-22T11:31:52;8.43;;;2.90;;
49440;SDS011;35317;51.978;6.296;2023-07-22T11:36:53;7.70;;;2.65;;
49440;SDS011;35317;51.978;6.296;2023-07-22T11:41:56;5.82;;;2.67;;
49440;SDS011;35317;51.978;6.296;2023-07-22T11:47:01;5.57;;;2.30;;
49440;SDS011;35317;51.978;6.296;2023-07-22T11:52:05;3.90;;;2.28;;
49440;SDS011;35317;51.978;6.296;2023-07-22T11:57:12;3.30;;;2.40;;
49440;SDS011;35317;51.978;6.296;2023-07-22T12:02:15;3.67;;;2.13;;
49440;SDS011;35317;51.978;6.296;2023-07-22T12:07:24;3.20;;;2.17;;
49440;SDS011;35317;51.978;6.296;2023-07-22T12:12:33;5.95;;;2.60;;
49440;SDS011;35317;51.978;6.296;2023-07-22T12:17:53;4.18;;;2.00;;
49440;SDS011;35317;51.978;6.296;2023-07-22T12:22:57;3.88;;;2.28;;
49440;SDS011;35317;51.978;6.296;2023-07-22T12:27:58;3.47;;;2.28;;
49440;SDS011;35317;51.978;6.296;2023-07-22T12:33:00;4.32;;;2.30;;
49440;SDS011;35317;51.978;6.296;2023-07-22T12:38:00;3.40;;;2.00;;
49440;SDS011;35317;51.978;6.296;2023-07-22T12:43:01;4.00;;;1.80;;
49440;SDS011;35317;51.978;6.296;2023-07-22T12:48:02;2.17;;;1.63;;
49440;SDS011;35317;51.978;6.296;2023-07-22T12:53:05;3.58;;;1.52;;
49440;SDS011;35317;51.978;6.296;2023-07-22T12:58:06;3.25;;;1.60;;
49440;SDS011;35317;51.978;6.296;2023-07-22T13:03:07;3.00;;;1.75;;
49440;SDS011;35317;51.978;6.296;2023-07-22T13:08:07;4.07;;;1.60;;
49440;SDS011;35317;51.978;6.296;2023-07-22T13:13:08;2.97;;;1.42;;
49440;SDS011;35317;51.978;6.296;2023-07-22T13:18:10;3.15;;;1.23;;
49440;SDS011;35317;51.978;6.296;2023-07-22T13:23:13;2.67;;;0.93;;
49440;SDS011;35317;51.978;6.296;2023-07-22T13:28:14;4.15;;;1.30;;
49440;SDS011;35317;51.978;6.296;2023-07-22T13:33:15;2.05;;;1.23;;
49440;SDS011;35317;51.978;6.296;2023-07-22T13:38:15;1.80;;;1.10;;
49440;SDS011;35317;51.978;6.296;2023-07-22T13:43:16;3.33;;;1.30;;
49440;SDS011;35317;51.978;6.296;2023-07-22T13:48:17;4.00;;;1.55;;
49440;SDS011;35317;51.978;6.296;2023-07-22T13:53:18;2.03;;;1.20;;
49440;SDS011;35317;51.978;6.296;2023-07-22T13:58:19;1.88;;;1.40;;
49440;SDS011;35317;51.978;6.296;2023-07-22T14:03:20;3.63;;;1.90;;
49440;SDS011;35317;51.978;6.296;2023-07-22T14:08:21;2.45;;;1.52;;
49440;SDS011;35317;51.978;6.296;2023-07-22T14:13:22;3.55;;;1.65;;
49440;SDS011;35317;51.978;6.296;2023-07-22T14:18:22;2.95;;;1.67;;
49440;SDS011;35317;51.978;6.296;2023-07-22T14:23:24;3.70;;;1.50;;
49440;SDS011;35317;51.978;6.296;2023-07-22T14:28:25;3.05;;;1.60;;
49440;SDS011;35317;51.978;6.296;2023-07-22T14:33:26;2.90;;;1.55;;
49440;SDS011;35317;51.978;6.296;2023-07-22T14:38:27;4.60;;;2.03;;
49440;SDS011;35317;51.978;6.296;2023-07-22T14:43:29;3.88;;;1.65;;
49440;SDS011;35317;51.978;6.296;2023-07-22T14:48:29;2.92;;;1.85;;
49440;SDS011;35317;51.978;6.296;2023-07-22T14:53:30;2.38;;;1.52;;
49440;SDS011;35317;51.978;6.296;2023-07-22T14:58:33;3.38;;;2.15;;
49440;SDS011;35317;51.978;6.296;2023-07-22T15:03:34;4.07;;;1.88;;
49440;SDS011;35317;51.978;6.296;2023-07-22T15:08:37;3.50;;;1.93;;
49440;SDS011;35317;51.978;6.296;2023-07-22T15:13:38;4.22;;;2.20;;
49440;SDS011;35317;51.978;6.296;2023-07-22T15:18:38;9.20;;;2.20;;
49440;SDS011;35317;51.978;6.296;2023-07-22T15:23:41;4.35;;;2.38;;
49440;SDS011;35317;51.978;6.296;2023-07-22T15:28:42;4.20;;;2.58;;
49440;SDS011;35317;51.978;6.296;2023-07-22T15:33:43;4.65;;;2.28;;
49440;SDS011;35317;51.978;6.296;2023-07-22T15:38:43;3.63;;;2.20;;
49440;SDS011;35317;51.978;6.296;2023-07-22T15:43:44;4.03;;;2.13;;
49440;SDS011;35317;51.978;6.296;2023-07-22T15:48:45;3.17;;;2.13;;
49440;SDS011;35317;51.978;6.296;2023-07-22T15:53:46;3.35;;;2.35;;
49440;SDS011;35317;51.978;6.296;2023-07-22T15:58:47;7.53;;;2.72;;
49440;SDS011;35317;51.978;6.296;2023-07-22T16:03:47;4.35;;;2.58;;
49440;SDS011;35317;51.978;6.296;2023-07-22T16:08:48;3.30;;;2.30;;
49440;SDS011;35317;51.978;6.296;2023-07-22T16:13:49;2.72;;;1.95;;
49440;SDS011;35317;51.978;6.296;2023-07-22T16:18:50;7.13;;;2.25;;
49440;SDS011;35317;51.978;6.296;2023-07-22T16:23:53;3.83;;;2.03;;
49440;SDS011;35317;51.978;6.296;2023-07-22T16:28:54;5.63;;;2.20;;
49440;SDS011;35317;51.978;6.296;2023-07-22T16:33:54;3.60;;;2.30;;
49440;SDS011;35317;51.978;6.296;2023-07-22T16:38:56;4.78;;;2.30;;
49440;SDS011;35317;51.978;6.296;2023-07-22T16:43:57;3.97;;;2.08;;
49440;SDS011;35317;51.978;6.296;2023-07-22T16:48:58;4.53;;;2.17;;
49440;SDS011;35317;51.978;6.296;2023-07-22T16:54:00;3.55;;;2.15;;
49440;SDS011;35317;51.978;6.296;2023-07-22T16:59:01;5.32;;;2.47;;
49440;SDS011;35317;51.978;6.296;2023-07-22T17:04:01;5.03;;;2.70;;
49440;SDS011;35317;51.978;6.296;2023-07-22T17:09:03;3.58;;;2.33;;
49440;SDS011;35317;51.978;6.296;2023-07-22T17:14:03;4.18;;;2.25;;
49440;SDS011;35317;51.978;6.296;2023-07-22T17:19:04;6.78;;;2.45;;
49440;SDS011;35317;51.978;6.296;2023-07-22T17:24:05;5.00;;;2.25;;
49440;SDS011;35317;51.978;6.296;2023-07-22T17:29:06;6.80;;;2.63;;
49440;SDS011;35317;51.978;6.296;2023-07-22T17:34:06;4.70;;;2.30;;
49440;SDS011;35317;51.978;6.296;2023-07-22T17:39:08;4.85;;;2.00;;
49440;SDS011;35317;51.978;6.296;2023-07-22T17:44:10;5.15;;;2.30;;
49440;SDS011;35317;51.978;6.296;2023-07-22T18:02:24;7.47;;;2.75;;
49440;SDS011;35317;51.978;6.296;2023-07-22T18:48:14;7.28;;;2.20;;
49440;SDS011;35317;51.978;6.296;2023-07-22T19:20:44;3.72;;;1.88;;
49440;SDS011;35317;51.978;6.296;2023-07-22T19:47:23;4.00;;;2.05;;
49440;SDS011;35317;51.978;6.296;2023-07-22T19:52:35;5.28;;;1.92;;
49440;SDS011;35317;51.978;6.296;2023-07-22T20:16:09;3.13;;;2.00;;
49440;SDS011;35317;51.978;6.296;2023-07-22T20:21:17;8.15;;;2.72;;
49440;SDS011;35317;51.978;6.296;2023-07-22T20:26:18;4.07;;;2.20;;
49440;SDS011;35317;51.978;6.296;2023-07-22T20:31:18;7.82;;;2.35;;
49440;SDS011;35317;51.978;6.296;2023-07-22T20:36:19;6.90;;;2.55;;
49440;SDS011;35317;51.978;6.296;2023-07-22T20:41:20;5.28;;;2.50;;
49440;SDS011;35317;51.978;6.296;2023-07-22T20:46:21;4.90;;;2.60;;
49440;SDS011;35317;51.978;6.296;2023-07-22T20:51:22;6.97;;;2.90;;
49440;SDS011;35317;51.978;6.296;2023-07-22T20:56:23;4.63;;;2.72;;
49440;SDS011;35317;51.978;6.296;2023-07-22T21:01:24;7.50;;;2.80;;
49440;SDS011;35317;51.978;6.296;2023-07-22T21:06:25;6.22;;;3.08;;
49440;SDS011;35317;51.978;6.296;2023-07-22T21:11:30;6.13;;;3.20;;
49440;SDS011;35317;51.978;6.296;2023-07-22T21:16:31;8.15;;;3.25;;
49440;SDS011;35317;51.978;6.296;2023-07-22T21:21:31;7.80;;;3.25;;
49440;SDS011;35317;51.978;6.296;2023-07-22T21:26:39;7.30;;;3.25;;
49440;SDS011;35317;51.978;6.296;2023-07-22T21:31:49;6.72;;;3.33;;
49440;SDS011;35317;51.978;6.296;2023-07-22T21:36:49;6.45;;;3.33;;
49440;SDS011;35317;51.978;6.296;2023-07-22T21:41:51;8.30;;;4.30;;
49440;SDS011;35317;51.978;6.296;2023-07-22T21:46:52;8.00;;;3.85;;
49440;SDS011;35317;51.978;6.296;2023-07-22T21:51:53;6.55;;;3.70;;
49440;SDS011;35317;51.978;6.296;2023-07-22T21:56:54;9.45;;;3.92;;
49440;SDS011;35317;51.978;6.296;2023-07-22T22:01:55;8.68;;;4.05;;
49440;SDS011;35317;51.978;6.296;2023-07-22T22:06:56;9.07;;;4.88;;
49440;SDS011;35317;51.978;6.296;2023-07-22T22:11:56;9.82;;;5.20;;
49440;SDS011;35317;51.978;6.296;2023-07-22T22:17:00;8.88;;;4.55;;
49440;SDS011;35317;51.978;6.296;2023-07-22T22:22:03;6.85;;;3.42;;
49440;SDS011;35317;51.978;6.296;2023-07-22T22:27:04;7.38;;;4.18;;
49440;SDS011;35317;51.978;6.296;2023-07-22T22:32:05;7.50;;;4.43;;
49440;SDS011;35317;51.978;6.296;2023-07-22T22:37:07;8.73;;;4.25;;
49440;SDS011;35317;51.978;6.296;2023-07-22T22:42:08;7.35;;;4.13;;
49440;SDS011;35317;51.978;6.296;2023-07-22T22:47:08;7.10;;;4.38;;
49440;SDS011;35317;51.978;6.296;2023-07-22T22:52:09;11.55;;;5.30;;
49440;SDS011;35317;51.978;6.296;2023-07-22T22:57:10;9.10;;;5.18;;
49440;SDS011;35317;51.978;6.296;2023-07-22T23:02:11;8.30;;;5.50;;
49440;SDS011;35317;51.978;6.296;2023-07-22T23:07:12;11.93;;;5.03;;
49440;SDS011;35317;51.978;6.296;2023-07-22T23:12:14;10.07;;;5.10;;
49440;SDS011;35317;51.978;6.296;2023-07-22T23:17:15;9.02;;;4.80;;
49440;SDS011;35317;51.978;6.296;2023-07-22T23:22:17;7.35;;;4.93;;
49440;SDS011;35317;51.978;6.296;2023-07-22T23:27:18;8.88;;;5.55;;
49440;SDS011;35317;51.978;6.296;2023-07-22T23:32:22;9.32;;;4.78;;
49440;SDS011;35317;51.978;6.296;2023-07-22T23:37:23;9.70;;;5.20;;
49440;SDS011;35317;51.978;6.296;2023-07-22T23:42:24;10.50;;;5.55;;
49440;SDS011;35317;51.978;6.296;2023-07-22T23:47:25;10.82;;;5.63;;
49440;SDS011;35317;51.978;6.296;2023-07-22T23:52:31;10.25;;;5.72;;
49440;SDS011;35317;51.978;6.296;2023-07-22T23:57:32;10.80;;;6.03;;
